createdAt,value
2024-05-09T00:01:30.352Z,11.21
2024-05-09T00:04:00.581Z,11.04
2024-05-09T00:06:31.495Z,10.94
2024-05-09T00:09:04.835Z,11.34
2024-05-09T00:11:35.818Z,10.68
2024-05-09T00:14:05.971Z,10.64
2024-05-09T00:16:36.822Z,10.67
2024-05-09T00:19:07.356Z,10.66
2024-05-09T00:21:39.170Z,10.70
2024-05-09T00:24:12.132Z,11.21
2024-05-09T00:26:42.722Z,10.28
2024-05-09T00:29:12.922Z,10.11
2024-05-09T00:31:43.684Z,9.99
2024-05-09T00:34:13.998Z,10.03
2024-05-09T00:36:44.771Z,9.97
2024-05-09T00:39:17.482Z,10.61
2024-05-09T00:41:48.372Z,9.98
2024-05-09T00:44:18.929Z,10.09
2024-05-09T00:46:54.718Z,9.88
2024-05-09T00:49:25.213Z,9.88
2024-05-09T00:51:57.558Z,10.43
2024-05-09T00:54:30.567Z,10.39
2024-05-09T00:57:01.359Z,9.85
2024-05-09T00:59:33.018Z,10.46
2024-05-09T01:02:04.124Z,10.17
2024-05-09T01:04:34.531Z,10.04
2024-05-09T01:07:05.365Z,10.16
2024-05-09T01:09:38.395Z,10.66
2024-05-09T01:12:09.732Z,10.04
2024-05-09T01:14:40.525Z,10.12
2024-05-09T01:17:11.796Z,9.98
2024-05-09T01:19:42.301Z,9.86
2024-05-09T01:22:12.910Z,9.77
2024-05-09T01:24:45.793Z,10.31
2024-05-09T01:27:16.534Z,9.71
2024-05-09T01:29:46.780Z,9.74
2024-05-09T01:32:17.391Z,9.61
2024-05-09T01:34:47.755Z,9.81
2024-05-09T01:37:18.348Z,9.72
2024-05-09T01:39:51.137Z,10.33
2024-05-09T01:42:21.693Z,9.69
2024-05-09T01:44:51.754Z,9.70
2024-05-09T01:47:22.730Z,9.73
2024-05-09T01:49:53.342Z,9.97
2024-05-09T01:52:23.983Z,9.82
2024-05-09T01:54:56.832Z,10.36
2024-05-09T01:57:27.457Z,9.72
2024-05-09T01:59:57.886Z,9.81
2024-05-09T02:02:29.018Z,10.03
2024-05-09T02:04:59.581Z,9.66
2024-05-09T02:07:30.127Z,9.66
2024-05-09T02:10:06.563Z,10.24
2024-05-09T02:12:40.168Z,9.66
2024-05-09T02:15:10.670Z,9.65
2024-05-09T02:17:41.683Z,9.55
2024-05-09T02:20:18.861Z,9.68
2024-05-09T02:22:58.255Z,9.52
2024-05-09T02:25:31.015Z,9.96
2024-05-09T02:28:01.782Z,9.27
2024-05-09T02:30:40.298Z,9.14
2024-05-09T02:33:12.389Z,9.47
2024-05-09T02:35:45.064Z,9.43
2024-05-09T02:38:13.643Z,9.16
2024-05-09T02:40:46.919Z,9.67
2024-05-09T02:43:14.918Z,9.06
2024-05-09T02:45:45.313Z,9.06
2024-05-09T02:48:14.255Z,8.89
2024-05-09T02:50:45.287Z,9.13
2024-05-09T02:53:14.421Z,9.14
2024-05-09T02:55:47.652Z,9.51
2024-05-09T02:58:15.667Z,8.90
2024-05-09T03:00:45.975Z,8.83
2024-05-09T03:03:15.627Z,9.04
2024-05-09T03:05:47.156Z,8.94
2024-05-09T03:08:15.471Z,8.90
2024-05-09T03:10:48.625Z,9.34
2024-05-09T03:13:19.650Z,8.80
2024-05-09T03:15:49.751Z,8.86
2024-05-09T03:18:17.969Z,9.04
2024-05-09T03:20:48.249Z,8.79
2024-05-09T03:23:16.653Z,8.93
2024-05-09T03:25:49.833Z,9.51
2024-05-09T03:28:17.801Z,9.01
2024-05-09T03:30:47.969Z,8.90
2024-05-09T03:33:20.288Z,9.24
2024-05-09T03:35:49.530Z,9.28
2024-05-09T03:38:20.411Z,9.20
2024-05-09T03:40:53.557Z,9.78
2024-05-09T03:43:24.320Z,9.53
2024-05-09T03:45:54.803Z,9.63
2024-05-09T03:48:22.872Z,9.76
2024-05-09T03:50:53.649Z,9.82
2024-05-09T03:53:23.069Z,9.87
2024-05-09T03:55:57.304Z,10.53
2024-05-09T03:58:25.377Z,10.30
2024-05-09T04:00:55.552Z,10.59
2024-05-09T04:03:23.982Z,10.81
2024-05-09T04:05:54.272Z,10.64
2024-05-09T04:08:22.469Z,10.30
2024-05-09T04:10:55.771Z,10.29
2024-05-09T04:13:23.664Z,10.31
2024-05-09T04:15:53.815Z,10.62
2024-05-09T04:18:21.817Z,10.88
2024-05-09T04:20:52.145Z,11.25
2024-05-09T04:23:20.279Z,11.48
2024-05-09T04:25:50.701Z,11.89
2024-05-09T04:28:21.428Z,12.81
2024-05-09T04:30:51.768Z,12.56
2024-05-09T04:33:20.916Z,13.07
2024-05-09T04:35:51.655Z,13.59
2024-05-09T04:38:19.596Z,13.90
2024-05-09T04:40:50.075Z,14.21
2024-05-09T04:43:21.517Z,14.63
2024-05-09T04:45:51.842Z,14.45
2024-05-09T04:48:19.960Z,14.73
2024-05-09T04:50:50.489Z,15.24
2024-05-09T04:53:18.599Z,15.55
2024-05-09T04:55:48.999Z,16.00
2024-05-09T04:58:17.421Z,16.34
2024-05-09T05:00:50.651Z,17.36
2024-05-09T05:03:20.003Z,17.39
2024-05-09T05:05:50.949Z,18.18
2024-05-09T05:08:19.632Z,18.76
2024-05-09T05:10:50.912Z,19.58
2024-05-09T05:13:24.028Z,19.34
2024-05-09T05:15:58.756Z,19.97
2024-05-09T05:18:27.850Z,19.02
2024-05-09T05:20:59.141Z,18.57
2024-05-09T05:23:27.232Z,18.72
2024-05-09T05:25:57.754Z,19.98
2024-05-09T05:28:25.785Z,20.71
2024-05-09T05:30:58.748Z,21.36
2024-05-09T05:33:27.037Z,21.28
2024-05-09T05:35:57.607Z,22.17
2024-05-09T05:38:28.810Z,22.67
2024-05-09T05:40:56.423Z,24.99
2024-05-09T05:43:27.165Z,23.69
2024-05-09T05:45:57.609Z,24.89
2024-05-09T05:48:28.870Z,24.76
2024-05-09T05:50:56.706Z,25.36
2024-05-09T05:53:27.515Z,25.43
2024-05-09T05:55:55.150Z,25.73
2024-05-09T05:58:25.900Z,25.86
2024-05-09T06:00:53.960Z,25.49
2024-05-09T06:03:28.881Z,26.51
2024-05-09T06:05:57.012Z,25.87
2024-05-09T06:08:30.281Z,25.86
2024-05-09T06:10:59.349Z,27.06
2024-05-09T06:13:30.317Z,27.91
2024-05-09T06:16:00.201Z,28.14
2024-05-09T06:18:33.693Z,28.47
2024-05-09T06:21:01.739Z,27.98
2024-05-09T06:23:32.563Z,28.80
2024-05-09T06:26:00.300Z,30.00
2024-05-09T06:28:31.158Z,30.64
2024-05-09T06:30:58.504Z,31.83
2024-05-09T06:33:29.246Z,28.60
2024-05-09T06:35:59.513Z,29.75
2024-05-09T06:38:31.113Z,29.22
2024-05-09T06:40:59.042Z,30.46
2024-05-09T06:43:30.631Z,31.33
2024-05-09T06:45:57.973Z,32.40
2024-05-09T06:48:29.641Z,31.20
2024-05-09T06:51:01.025Z,31.24
2024-05-09T06:53:32.384Z,30.58
2024-05-09T06:56:00.003Z,30.71
2024-05-09T06:58:30.725Z,30.18
2024-05-09T07:00:58.384Z,30.20
2024-05-09T07:03:29.208Z,29.89
2024-05-09T07:05:59.680Z,29.28
2024-05-09T07:08:30.697Z,29.76
2024-05-09T07:10:58.382Z,31.97
2024-05-09T07:13:29.404Z,30.89
2024-05-09T07:16:00.137Z,32.92
2024-05-09T07:18:33.281Z,34.65
2024-05-09T07:21:04.070Z,36.03
2024-05-09T07:23:35.171Z,34.79
2024-05-09T07:26:02.914Z,35.71
2024-05-09T07:28:33.867Z,35.98
2024-05-09T07:31:01.687Z,35.88
2024-05-09T07:33:32.998Z,36.91
2024-05-09T07:36:03.612Z,37.72
2024-05-09T07:38:36.609Z,36.53
2024-05-09T07:41:04.447Z,37.15
2024-05-09T07:43:35.086Z,36.09
2024-05-09T07:46:51.839Z,36.69
2024-05-09T07:54:01.407Z,37.83
2024-05-09T07:56:31.743Z,35.50
2024-05-09T07:59:02.902Z,36.44
2024-05-09T08:01:30.560Z,37.21
2024-05-09T08:04:01.613Z,38.09
2024-05-09T08:06:32.676Z,39.93
2024-05-09T08:09:08.002Z,40.23
2024-05-09T08:11:38.825Z,39.17
2024-05-09T08:14:09.514Z,36.41
2024-05-09T08:16:37.033Z,35.89
2024-05-09T08:19:07.752Z,38.07
2024-05-09T08:21:38.091Z,40.03
2024-05-09T08:24:10.768Z,41.32
2024-05-09T08:26:38.945Z,42.18
2024-05-09T08:29:10.113Z,40.82
2024-05-09T08:31:38.253Z,40.37
2024-05-09T08:34:09.180Z,39.95
2024-05-09T08:36:41.037Z,41.85
2024-05-09T08:39:11.830Z,42.61
2024-05-09T08:41:42.346Z,44.08
2024-05-09T08:44:13.794Z,43.48
2024-05-09T08:46:42.218Z,44.38
2024-05-09T08:49:13.484Z,44.51
2024-05-09T08:51:43.959Z,45.32
2024-05-09T08:54:14.963Z,45.12
2024-05-09T08:56:46.378Z,45.99
2024-05-09T08:59:20.949Z,45.24
2024-05-09T09:01:49.137Z,41.85
2024-05-09T09:04:20.369Z,37.67
2024-05-09T09:06:53.252Z,38.92
2024-05-09T09:09:25.721Z,39.59
2024-05-09T09:11:53.834Z,41.14
2024-05-09T09:14:24.419Z,43.38
2024-05-09T09:16:52.207Z,44.52
2024-05-09T09:19:26.103Z,45.79
2024-05-09T09:21:57.242Z,46.26
2024-05-09T09:24:28.638Z,46.48
2024-05-09T09:26:57.457Z,47.68
2024-05-09T09:29:28.198Z,47.47
2024-05-09T09:31:59.341Z,44.50
2024-05-09T09:34:31.701Z,42.39
2024-05-09T09:37:05.777Z,43.66
2024-05-09T09:39:38.146Z,41.47
2024-05-09T09:42:06.759Z,42.73
2024-05-09T09:44:41.942Z,45.14
2024-05-09T09:47:10.331Z,47.31
2024-05-09T09:49:41.573Z,48.51
2024-05-09T09:52:13.379Z,50.09
2024-05-09T09:54:44.982Z,50.77
2024-05-09T09:57:12.783Z,48.62
2024-05-09T09:59:46.592Z,44.18
2024-05-09T10:02:14.720Z,40.61
2024-05-09T10:04:45.859Z,42.53
2024-05-09T10:07:17.714Z,45.14
2024-05-09T10:09:48.578Z,45.78
2024-05-09T10:12:16.583Z,45.81
2024-05-09T10:14:51.648Z,42.27
2024-05-09T10:17:19.387Z,41.90
2024-05-09T10:19:50.585Z,41.77
2024-05-09T10:22:29.459Z,43.13
2024-05-09T10:25:07.855Z,43.97
2024-05-09T10:27:35.834Z,45.50
2024-05-09T10:30:14.361Z,47.16
2024-05-09T10:32:45.591Z,46.53
2024-05-09T10:35:19.520Z,47.66
2024-05-09T10:37:51.379Z,48.48
2024-05-09T10:40:26.637Z,48.75
2024-05-09T10:43:00.559Z,51.33
2024-05-09T10:45:32.944Z,47.58
2024-05-09T10:48:01.158Z,45.01
2024-05-09T10:50:34.441Z,42.71
2024-05-09T10:53:05.858Z,42.07
2024-05-09T10:55:37.012Z,41.17
2024-05-09T10:58:05.102Z,42.08
2024-05-09T11:00:36.969Z,43.68
2024-05-09T11:03:05.328Z,45.04
2024-05-09T11:05:36.546Z,46.69
2024-05-09T11:08:07.526Z,47.93
2024-05-09T11:10:39.374Z,47.20
2024-05-09T11:13:07.022Z,46.46
2024-05-09T11:15:42.189Z,45.40
2024-05-09T11:18:24.440Z,44.67
2024-05-09T11:20:57.155Z,43.55
2024-05-09T11:23:30.679Z,42.61
2024-05-09T11:26:02.217Z,40.70
2024-05-09T11:28:31.549Z,38.09
2024-05-09T11:31:10.384Z,35.62
2024-05-09T11:33:39.693Z,33.55
2024-05-09T11:36:11.254Z,31.81
2024-05-09T11:38:41.539Z,30.76
2024-05-09T11:41:20.155Z,28.68
2024-05-09T11:43:47.710Z,25.86
2024-05-09T11:46:18.422Z,24.93
2024-05-09T11:48:46.334Z,23.48
2024-05-09T11:51:17.111Z,22.27
2024-05-09T11:53:47.331Z,23.14
2024-05-09T11:56:18.547Z,23.15
2024-05-09T11:58:46.581Z,23.10
2024-05-09T12:01:20.316Z,23.54
2024-05-09T12:03:49.717Z,23.64
2024-05-09T12:06:20.791Z,23.98
2024-05-09T12:08:51.201Z,24.46
2024-05-09T12:11:22.437Z,23.68
2024-05-09T12:13:49.822Z,25.13
2024-05-09T12:16:20.694Z,23.61
2024-05-09T12:18:48.463Z,22.55
2024-05-09T12:21:21.831Z,22.45
2024-05-09T12:23:52.517Z,23.71
2024-05-09T12:26:23.144Z,23.66
2024-05-09T12:28:51.522Z,23.69
2024-05-09T12:31:22.250Z,23.22
2024-05-09T12:33:50.068Z,22.32
2024-05-09T12:36:21.649Z,22.17
2024-05-09T12:38:52.331Z,21.50
2024-05-09T12:41:23.002Z,20.61
2024-05-09T12:43:50.834Z,20.96
2024-05-09T12:46:23.627Z,21.17
2024-05-09T12:48:52.345Z,21.37
2024-05-09T12:51:23.394Z,21.68
2024-05-09T12:53:54.162Z,22.51
2024-05-09T12:56:25.433Z,22.05
2024-05-09T12:58:53.372Z,22.22
2024-05-09T13:01:24.376Z,22.26
2024-05-09T13:03:52.287Z,22.49
2024-05-09T13:06:23.387Z,22.64
2024-05-09T13:08:53.948Z,22.58
2024-05-09T13:11:24.536Z,22.74
2024-05-09T13:13:52.258Z,22.86
2024-05-09T13:16:23.188Z,23.06
2024-05-09T13:18:51.082Z,23.07
2024-05-09T13:21:22.170Z,23.13
2024-05-09T13:23:50.046Z,23.14
2024-05-09T13:26:23.348Z,23.77
2024-05-09T13:28:51.422Z,23.24
2024-05-09T13:31:22.349Z,23.15
2024-05-09T13:33:50.490Z,24.37
2024-05-09T13:36:21.278Z,22.50
2024-05-09T13:38:49.459Z,22.08
2024-05-09T13:41:22.789Z,22.24
2024-05-09T13:43:50.884Z,21.81
2024-05-09T13:46:24.779Z,22.69
2024-05-09T13:48:52.920Z,22.33
2024-05-09T13:51:23.883Z,22.65
2024-05-09T13:53:51.821Z,22.84
2024-05-09T13:56:25.138Z,23.53
2024-05-09T13:58:55.101Z,23.19
2024-05-09T14:01:26.009Z,22.87
2024-05-09T14:03:54.038Z,22.79
2024-05-09T14:06:25.174Z,22.54
2024-05-09T14:08:52.841Z,21.60
2024-05-09T14:11:26.131Z,21.94
2024-05-09T14:13:53.866Z,21.08
2024-05-09T14:16:24.605Z,21.57
2024-05-09T14:18:52.274Z,21.61
2024-05-09T14:21:23.348Z,21.77
2024-05-09T14:23:51.257Z,22.26
2024-05-09T14:26:21.824Z,22.23
2024-05-09T14:28:52.076Z,22.94
2024-05-09T14:31:23.636Z,22.82
2024-05-09T14:33:51.944Z,22.83
2024-05-09T14:36:22.913Z,22.87
2024-05-09T14:38:50.805Z,23.21
2024-05-09T14:41:21.791Z,22.91
2024-05-09T14:43:52.486Z,23.63
2024-05-09T14:46:23.147Z,23.09
2024-05-09T14:48:51.799Z,23.17
2024-05-09T14:51:22.695Z,23.19
2024-05-09T14:53:50.573Z,23.19
2024-05-09T14:56:21.471Z,23.13
2024-05-09T14:58:51.640Z,23.64
2024-05-09T15:01:24.334Z,23.21
2024-05-09T15:03:52.136Z,23.11
2024-05-09T15:06:23.037Z,22.88
2024-05-09T15:08:54.944Z,23.32
2024-05-09T15:11:26.093Z,22.35
2024-05-09T15:13:56.446Z,23.07
2024-05-09T15:16:27.158Z,22.61
2024-05-09T15:18:55.111Z,22.75
2024-05-09T15:21:26.102Z,22.75
2024-05-09T15:23:53.819Z,22.80
2024-05-09T15:26:25.067Z,22.75
2024-05-09T15:28:52.705Z,22.67
2024-05-09T15:31:26.292Z,23.20
2024-05-09T15:33:54.164Z,22.25
2024-05-09T15:36:25.290Z,22.36
2024-05-09T15:38:52.899Z,22.19
2024-05-09T15:41:23.735Z,21.89
2024-05-09T15:43:51.365Z,21.91
2024-05-09T15:46:22.340Z,21.96
2024-05-09T15:48:53.013Z,22.54
2024-05-09T15:51:24.006Z,22.01
2024-05-09T15:53:51.627Z,21.70
2024-05-09T15:56:41.108Z,22.96
2024-05-09T15:59:11.906Z,21.76
2024-05-09T16:01:42.899Z,21.63
2024-05-09T16:04:15.587Z,22.06
2024-05-09T16:06:48.232Z,21.49
2024-05-09T16:09:16.169Z,20.89
2024-05-09T16:11:47.149Z,20.69
2024-05-09T16:14:16.307Z,20.75
2024-05-09T16:16:47.664Z,20.64
2024-05-09T16:19:18.032Z,21.11
2024-05-09T16:21:48.804Z,20.31
2024-05-09T16:24:16.734Z,20.31
2024-05-09T16:26:47.272Z,20.17
2024-05-09T16:29:16.123Z,20.12
2024-05-09T16:31:47.905Z,20.02
2024-05-09T16:34:23.162Z,20.58
2024-05-09T16:36:52.434Z,20.06
2024-05-09T16:39:23.206Z,19.95
2024-05-09T16:41:51.426Z,19.87
2024-05-09T16:44:21.904Z,19.56
2024-05-09T16:46:50.002Z,19.53
2024-05-09T16:49:24.202Z,19.89
2024-05-09T16:51:52.620Z,19.27
2024-05-09T16:54:22.841Z,19.18
2024-05-09T16:56:51.112Z,19.33
2024-05-09T16:59:22.675Z,19.13
2024-05-09T17:01:51.857Z,19.10
2024-05-09T17:04:25.378Z,19.55
2024-05-09T17:06:53.537Z,18.86
2024-05-09T17:09:25.022Z,19.15
2024-05-09T17:11:53.061Z,18.58
2024-05-09T17:14:23.415Z,18.48
2024-05-09T17:16:54.751Z,18.72
2024-05-09T17:19:27.969Z,19.08
2024-05-09T17:21:56.136Z,18.33
2024-05-09T17:24:26.663Z,18.32
2024-05-09T17:26:54.994Z,18.36
2024-05-09T17:29:25.317Z,18.23
2024-05-09T17:31:53.290Z,17.99
2024-05-09T17:34:23.685Z,17.83
2024-05-09T17:36:54.753Z,18.21
2024-05-09T17:39:26.717Z,17.57
2024-05-09T17:41:54.779Z,17.56
2024-05-09T17:44:24.924Z,17.50
2024-05-09T17:46:53.110Z,17.61
2024-05-09T17:49:23.521Z,17.41
2024-05-09T17:51:54.805Z,17.96
2024-05-09T17:54:25.061Z,17.35
2024-05-09T17:56:53.107Z,17.23
2024-05-09T17:59:23.599Z,17.05
2024-05-09T18:01:51.627Z,16.94
2024-05-09T18:04:22.638Z,16.84
2024-05-09T18:06:50.835Z,16.75
2024-05-09T18:09:23.818Z,17.17
2024-05-09T18:11:51.865Z,16.50
2024-05-09T18:14:22.254Z,16.41
2024-05-09T18:16:51.116Z,16.50
2024-05-09T18:19:22.031Z,16.13
2024-05-09T18:21:50.397Z,17.56
2024-05-09T18:24:24.984Z,16.18
2024-05-09T18:26:53.006Z,16.04
2024-05-09T18:29:23.867Z,16.21
2024-05-09T18:31:51.634Z,17.61
2024-05-09T18:34:21.970Z,16.11
2024-05-09T18:36:50.780Z,15.99
2024-05-09T18:39:24.099Z,16.49
2024-05-09T18:41:52.244Z,15.82
2024-05-09T18:44:22.569Z,15.71
2024-05-09T18:46:51.423Z,15.58
2024-05-09T18:49:22.027Z,15.41
2024-05-09T18:51:50.153Z,15.55
2024-05-09T18:54:20.457Z,15.32
2024-05-09T18:56:51.495Z,15.71
2024-05-09T18:59:22.265Z,15.22
2024-05-09T19:01:50.514Z,15.12
2024-05-09T19:04:22.405Z,15.25
2024-05-09T19:06:50.979Z,14.97
2024-05-09T19:09:21.719Z,14.89
2024-05-09T19:11:52.525Z,16.33
2024-05-09T19:14:23.221Z,14.96
2024-05-09T19:16:51.562Z,14.88
2024-05-09T19:19:22.352Z,14.76
2024-05-09T19:21:51.006Z,14.84
2024-05-09T19:24:22.550Z,14.78
2024-05-09T19:26:53.383Z,15.25
2024-05-09T19:29:23.982Z,14.75
2024-05-09T19:31:52.232Z,14.67
2024-05-09T19:34:22.882Z,14.52
2024-05-09T19:36:51.583Z,14.51
2024-05-09T19:39:22.220Z,14.42
2024-05-09T19:41:55.912Z,15.00
2024-05-09T19:44:23.578Z,14.38
2024-05-09T19:46:54.324Z,14.36
2024-05-09T19:49:22.489Z,14.42
2024-05-09T19:51:53.354Z,14.13
2024-05-09T19:54:21.071Z,14.05
2024-05-09T19:56:52.085Z,14.00
2024-05-09T19:59:22.689Z,14.61
2024-05-09T20:01:53.414Z,14.01
2024-05-09T20:04:21.715Z,14.12
2024-05-09T20:06:53.736Z,13.89
2024-05-09T20:09:21.474Z,13.65
2024-05-09T20:11:53.278Z,13.34
2024-05-09T20:14:23.966Z,13.97
2024-05-09T20:16:55.046Z,13.49
2024-05-09T20:19:22.872Z,13.55
2024-05-09T20:21:54.477Z,13.47
2024-05-09T20:24:22.781Z,13.46
2024-05-09T20:26:53.671Z,13.50
2024-05-09T20:29:24.202Z,13.99
2024-05-09T20:31:55.125Z,13.40
2024-05-09T20:34:23.374Z,13.34
2024-05-09T20:36:54.619Z,13.29
2024-05-09T20:39:25.561Z,13.62
2024-05-09T20:41:56.451Z,13.07
2024-05-09T20:44:27.293Z,13.53
2024-05-09T20:46:58.469Z,13.13
2024-05-09T20:49:26.223Z,13.08
2024-05-09T20:51:58.291Z,13.16
2024-05-09T20:54:26.104Z,13.21
2024-05-09T20:56:57.249Z,13.17
2024-05-09T20:59:27.785Z,13.80
2024-05-09T21:01:59.035Z,13.37
2024-05-09T21:04:27.443Z,13.29
2024-05-09T21:06:58.732Z,12.90
2024-05-09T21:09:26.457Z,13.03
2024-05-09T21:11:57.411Z,12.85
2024-05-09T21:14:30.571Z,13.47
2024-05-09T21:16:59.221Z,12.91
2024-05-09T21:19:29.817Z,12.78
2024-05-09T21:21:58.224Z,12.82
2024-05-09T21:24:30.585Z,12.75
2024-05-09T21:26:58.736Z,12.74
2024-05-09T21:29:31.533Z,13.22
2024-05-09T21:31:59.640Z,12.72
2024-05-09T21:34:30.194Z,12.51
2024-05-09T21:36:58.684Z,12.68
2024-05-09T21:39:30.368Z,12.45
2024-05-09T21:42:02.018Z,12.50
2024-05-09T21:44:35.166Z,13.05
2024-05-09T21:47:03.398Z,12.32
2024-05-09T21:49:34.373Z,12.34
2024-05-09T21:52:02.949Z,12.38
2024-05-09T21:54:33.078Z,12.34
2024-05-09T21:57:01.229Z,12.48
2024-05-09T21:59:34.456Z,12.99
2024-05-09T22:02:02.741Z,12.39
2024-05-09T22:04:33.591Z,12.40
2024-05-09T22:07:01.658Z,12.15
2024-05-09T22:09:31.920Z,12.09
2024-05-09T22:11:59.915Z,12.15
2024-05-09T22:14:30.240Z,12.20
2024-05-09T22:17:00.704Z,12.77
2024-05-09T22:19:32.075Z,12.14
2024-05-09T22:22:00.313Z,12.07
2024-05-09T22:24:30.530Z,12.14
2024-05-09T22:26:59.066Z,12.11
2024-05-09T22:29:29.554Z,12.06
2024-05-09T22:31:57.695Z,12.08
2024-05-09T22:34:31.335Z,12.62
2024-05-09T22:37:01.396Z,12.02
2024-05-09T22:39:32.415Z,12.28
2024-05-09T22:42:00.415Z,12.09
2024-05-09T22:44:30.844Z,12.08
2024-05-09T22:46:58.827Z,11.85
2024-05-09T22:49:32.341Z,12.38
2024-05-09T22:52:00.655Z,11.68
2024-05-09T22:54:30.993Z,11.66
2024-05-09T22:56:58.987Z,11.56
2024-05-09T22:59:29.595Z,11.61
2024-05-09T23:01:57.692Z,11.58
2024-05-09T23:04:27.976Z,11.55
2024-05-09T23:06:59.215Z,12.17
2024-05-09T23:09:29.691Z,11.55
2024-05-09T23:11:57.735Z,11.46
2024-05-09T23:14:28.943Z,11.52
2024-05-09T23:16:56.923Z,11.54
2024-05-09T23:19:27.687Z,11.58
2024-05-09T23:21:58.699Z,11.58
2024-05-09T23:24:29.713Z,11.58
2024-05-09T23:26:58.372Z,11.57
2024-05-09T23:29:28.759Z,11.43
2024-05-09T23:31:57.303Z,11.42
2024-05-09T23:34:27.753Z,11.42
2024-05-09T23:36:55.818Z,11.44
2024-05-09T23:39:29.270Z,12.03
2024-05-09T23:42:00.514Z,11.40
2024-05-09T23:44:30.707Z,11.37
2024-05-09T23:46:58.720Z,11.37
2024-05-09T23:49:29.200Z,11.18
2024-05-09T23:51:57.170Z,11.17
2024-05-09T23:54:30.033Z,11.68
2024-05-09T23:56:58.075Z,11.09
2024-05-09T23:59:28.441Z,11.09
